sensor_id;sensor_type;location;lat;lon;timestamp;pressure;altitude;pressure_sealevel;temperature;humidity
73205;BME280;61413;-27.702;153.216;2024-01-30T00:02:17;100942.62;;;28.59;44.18
73205;BME280;61413;-27.702;153.216;2024-01-30T00:04:40;100936.40;;;28.56;43.81
73205;BME280;61413;-27.702;153.216;2024-01-30T00:07:08;100925.05;;;28.99;43.56
73205;BME280;61413;-27.702;153.216;2024-01-30T00:09:35;100927.77;;;29.25;43.02
73205;BME280;61413;-27.702;153.216;2024-01-30T00:12:02;100933.48;;;29.29;42.93
73205;BME280;61413;-27.702;153.216;2024-01-30T00:14:30;100933.19;;;29.35;42.43
73205;BME280;61413;-27.702;153.216;2024-01-30T00:16:59;100942.57;;;30.66;40.94
73205;BME280;61413;-27.702;153.216;2024-01-30T00:19:26;100945.91;;;32.68;38.17
73205;BME280;61413;-27.702;153.216;2024-01-30T00:21:54;100951.38;;;32.93;37.27
73205;BME280;61413;-27.702;153.216;2024-01-30T00:24:21;100956.97;;;31.36;38.30
73205;BME280;61413;-27.702;153.216;2024-01-30T00:26:56;100951.64;;;30.83;38.79
73205;BME280;61413;-27.702;153.216;2024-01-30T00:29:16;100948.23;;;30.40;39.43
73205;BME280;61413;-27.702;153.216;2024-01-30T00:31:44;100947.54;;;29.98;40.34
73205;BME280;61413;-27.702;153.216;2024-01-30T00:34:11;100937.98;;;29.68;40.68
73205;BME280;61413;-27.702;153.216;2024-01-30T00:36:39;100940.60;;;29.51;40.84
73205;BME280;61413;-27.702;153.216;2024-01-30T00:39:06;100936.78;;;29.62;40.77
73205;BME280;61413;-27.702;153.216;2024-01-30T00:41:33;100929.82;;;29.41;40.76
73205;BME280;61413;-27.702;153.216;2024-01-30T00:44:00;100924.20;;;29.32;41.06
73205;BME280;61413;-27.702;153.216;2024-01-30T00:46:28;100920.59;;;28.73;41.97
73205;BME280;61413;-27.702;153.216;2024-01-30T00:48:54;100921.94;;;28.72;42.60
73205;BME280;61413;-27.702;153.216;2024-01-30T00:51:21;100913.51;;;28.58;42.35
73205;BME280;61413;-27.702;153.216;2024-01-30T00:53:49;100907.84;;;28.58;42.55
73205;BME280;61413;-27.702;153.216;2024-01-30T00:56:16;100919.91;;;29.22;41.79
73205;BME280;61413;-27.702;153.216;2024-01-30T00:58:43;100923.65;;;29.22;41.28
73205;BME280;61413;-27.702;153.216;2024-01-30T01:01:10;100933.36;;;29.54;40.96
73205;BME280;61413;-27.702;153.216;2024-01-30T01:03:37;100938.27;;;29.48;40.98
73205;BME280;61413;-27.702;153.216;2024-01-30T01:06:04;100933.29;;;28.92;41.47
73205;BME280;61413;-27.702;153.216;2024-01-30T01:08:31;100932.23;;;28.86;41.86
73205;BME280;61413;-27.702;153.216;2024-01-30T01:10:58;100946.62;;;28.25;42.01
73205;BME280;61413;-27.702;153.216;2024-01-30T01:13:25;100939.34;;;28.38;42.57
73205;BME280;61413;-27.702;153.216;2024-01-30T01:15:52;100930.81;;;28.00;43.23
73205;BME280;61413;-27.702;153.216;2024-01-30T01:18:20;100927.52;;;28.25;43.05
73205;BME280;61413;-27.702;153.216;2024-01-30T01:20:48;100928.26;;;28.38;43.21
73205;BME280;61413;-27.702;153.216;2024-01-30T01:23:14;100922.92;;;28.62;42.57
73205;BME280;61413;-27.702;153.216;2024-01-30T01:25:42;100923.82;;;28.87;42.38
73205;BME280;61413;-27.702;153.216;2024-01-30T01:28:09;100921.14;;;28.70;42.35
73205;BME280;61413;-27.702;153.216;2024-01-30T01:30:36;100920.16;;;28.81;42.26
73205;BME280;61413;-27.702;153.216;2024-01-30T01:33:03;100918.72;;;28.99;42.01
73205;BME280;61413;-27.702;153.216;2024-01-30T01:35:30;100922.03;;;28.77;41.49
73205;BME280;61413;-27.702;153.216;2024-01-30T01:37:57;100920.38;;;28.82;41.67
73205;BME280;61413;-27.702;153.216;2024-01-30T01:40:25;100920.06;;;29.28;41.20
73205;BME280;61413;-27.702;153.216;2024-01-30T01:42:54;100918.48;;;28.87;41.16
73205;BME280;61413;-27.702;153.216;2024-01-30T01:45:22;100919.07;;;29.15;40.72
73205;BME280;61413;-27.702;153.216;2024-01-30T01:48:44;100922.06;;;28.53;41.16
73205;BME280;61413;-27.702;153.216;2024-01-30T01:51:11;100915.43;;;28.88;41.02
73205;BME280;61413;-27.702;153.216;2024-01-30T01:53:38;100910.66;;;28.86;40.47
73205;BME280;61413;-27.702;153.216;2024-01-30T01:56:06;100909.34;;;28.76;41.07
73205;BME280;61413;-27.702;153.216;2024-01-30T01:58:31;100915.42;;;28.90;40.85
73205;BME280;61413;-27.702;153.216;2024-01-30T02:00:59;100913.26;;;28.85;40.97
73205;BME280;61413;-27.702;153.216;2024-01-30T02:03:26;100912.57;;;28.37;41.19
73205;BME280;61413;-27.702;153.216;2024-01-30T02:05:53;100903.02;;;28.62;41.00
73205;BME280;61413;-27.702;153.216;2024-01-30T02:08:21;100906.15;;;28.88;40.86
73205;BME280;61413;-27.702;153.216;2024-01-30T02:10:48;100907.92;;;28.53;40.87
73205;BME280;61413;-27.702;153.216;2024-01-30T02:13:15;100906.05;;;28.36;40.80
73205;BME280;61413;-27.702;153.216;2024-01-30T02:15:42;100911.27;;;28.50;41.09
73205;BME280;61413;-27.702;153.216;2024-01-30T02:18:09;100913.68;;;28.41;41.03
73205;BME280;61413;-27.702;153.216;2024-01-30T02:20:37;100906.15;;;28.46;40.53
73205;BME280;61413;-27.702;153.216;2024-01-30T02:23:05;100900.80;;;28.60;40.49
73205;BME280;61413;-27.702;153.216;2024-01-30T02:25:36;100901.94;;;28.48;40.54
73205;BME280;61413;-27.702;153.216;2024-01-30T02:27:55;100899.56;;;28.23;40.63
73205;BME280;61413;-27.702;153.216;2024-01-30T02:30:22;100899.76;;;28.23;40.68
73205;BME280;61413;-27.702;153.216;2024-01-30T02:32:50;100892.67;;;28.22;40.79
73205;BME280;61413;-27.702;153.216;2024-01-30T02:35:16;100900.59;;;28.06;40.83
73205;BME280;61413;-27.702;153.216;2024-01-30T02:37:44;100892.89;;;27.96;40.29
73205;BME280;61413;-27.702;153.216;2024-01-30T02:40:11;100899.03;;;28.08;40.66
73205;BME280;61413;-27.702;153.216;2024-01-30T02:42:39;100893.95;;;28.15;40.85
73205;BME280;61413;-27.702;153.216;2024-01-30T02:45:07;100898.93;;;28.19;41.00
73205;BME280;61413;-27.702;153.216;2024-01-30T02:47:35;100898.43;;;28.57;40.83
73205;BME280;61413;-27.702;153.216;2024-01-30T02:50:03;100893.18;;;28.45;40.67
73205;BME280;61413;-27.702;153.216;2024-01-30T02:52:31;100884.19;;;28.49;40.58
73205;BME280;61413;-27.702;153.216;2024-01-30T02:54:59;100888.89;;;28.06;40.64
73205;BME280;61413;-27.702;153.216;2024-01-30T02:57:26;100886.43;;;28.00;40.69
73205;BME280;61413;-27.702;153.216;2024-01-30T02:59:53;100886.65;;;28.34;40.38
73205;BME280;61413;-27.702;153.216;2024-01-30T03:02:21;100889.40;;;28.41;39.94
73205;BME280;61413;-27.702;153.216;2024-01-30T03:04:48;100894.09;;;28.33;39.08
73205;BME280;61413;-27.702;153.216;2024-01-30T03:07:16;100881.91;;;28.37;38.80
73205;BME280;61413;-27.702;153.216;2024-01-30T03:11:54;100884.11;;;28.68;39.15
73205;BME280;61413;-27.702;153.216;2024-01-30T03:14:21;100876.30;;;28.49;38.88
73205;BME280;61413;-27.702;153.216;2024-01-30T03:16:48;100879.26;;;28.12;39.51
73205;BME280;61413;-27.702;153.216;2024-01-30T03:19:15;100878.22;;;28.13;39.89
73205;BME280;61413;-27.702;153.216;2024-01-30T03:22:22;100874.75;;;28.35;40.15
73205;BME280;61413;-27.702;153.216;2024-01-30T03:24:49;100873.35;;;28.38;40.15
73205;BME280;61413;-27.702;153.216;2024-01-30T03:27:16;100873.90;;;27.85;40.63
73205;BME280;61413;-27.702;153.216;2024-01-30T03:29:43;100866.66;;;28.33;40.96
73205;BME280;61413;-27.702;153.216;2024-01-30T03:33:48;100863.02;;;27.78;41.98
73205;BME280;61413;-27.702;153.216;2024-01-30T03:36:16;100861.47;;;27.18;42.25
73205;BME280;61413;-27.702;153.216;2024-01-30T03:38:44;100862.22;;;27.61;42.19
73205;BME280;61413;-27.702;153.216;2024-01-30T03:41:11;100860.58;;;27.62;41.77
73205;BME280;61413;-27.702;153.216;2024-01-30T03:43:48;100854.76;;;28.29;41.24
73205;BME280;61413;-27.702;153.216;2024-01-30T03:46:06;100855.00;;;28.36;41.11
73205;BME280;61413;-27.702;153.216;2024-01-30T03:48:34;100851.06;;;28.20;41.15
73205;BME280;61413;-27.702;153.216;2024-01-30T03:51:01;100849.85;;;28.56;40.89
73205;BME280;61413;-27.702;153.216;2024-01-30T03:53:28;100841.71;;;28.68;40.64
73205;BME280;61413;-27.702;153.216;2024-01-30T03:55:56;100842.78;;;28.44;40.55
73205;BME280;61413;-27.702;153.216;2024-01-30T03:58:24;100839.74;;;28.35;40.67
73205;BME280;61413;-27.702;153.216;2024-01-30T04:00:51;100838.48;;;28.46;40.77
73205;BME280;61413;-27.702;153.216;2024-01-30T04:03:18;100840.43;;;28.41;40.98
73205;BME280;61413;-27.702;153.216;2024-01-30T04:05:46;100840.73;;;28.53;40.81
73205;BME280;61413;-27.702;153.216;2024-01-30T04:08:14;100837.45;;;28.12;40.90
73205;BME280;61413;-27.702;153.216;2024-01-30T04:10:41;100832.58;;;28.24;40.54
73205;BME280;61413;-27.702;153.216;2024-01-30T04:13:08;100829.41;;;28.18;40.54
73205;BME280;61413;-27.702;153.216;2024-01-30T04:16:41;100825.80;;;28.20;40.70
73205;BME280;61413;-27.702;153.216;2024-01-30T04:19:08;100826.23;;;28.19;40.63
73205;BME280;61413;-27.702;153.216;2024-01-30T04:21:36;100831.25;;;28.10;40.70
73205;BME280;61413;-27.702;153.216;2024-01-30T04:24:03;100820.22;;;28.12;40.51
73205;BME280;61413;-27.702;153.216;2024-01-30T04:26:30;100824.79;;;28.10;40.65
73205;BME280;61413;-27.702;153.216;2024-01-30T04:28:58;100820.64;;;28.34;40.62
73205;BME280;61413;-27.702;153.216;2024-01-30T04:31:25;100831.98;;;28.14;40.34
73205;BME280;61413;-27.702;153.216;2024-01-30T04:35:12;100823.99;;;28.30;40.41
73205;BME280;61413;-27.702;153.216;2024-01-30T04:37:39;100825.65;;;28.05;40.73
73205;BME280;61413;-27.702;153.216;2024-01-30T04:40:08;100830.33;;;27.79;40.95
73205;BME280;61413;-27.702;153.216;2024-01-30T04:42:35;100834.97;;;28.36;40.58
73205;BME280;61413;-27.702;153.216;2024-01-30T04:45:02;100826.83;;;28.53;40.57
73205;BME280;61413;-27.702;153.216;2024-01-30T04:47:29;100828.17;;;28.60;40.50
73205;BME280;61413;-27.702;153.216;2024-01-30T04:49:56;100832.41;;;28.31;40.45
73205;BME280;61413;-27.702;153.216;2024-01-30T04:52:23;100822.76;;;28.52;40.27
73205;BME280;61413;-27.702;153.216;2024-01-30T04:54:50;100825.31;;;28.21;40.34
73205;BME280;61413;-27.702;153.216;2024-01-30T04:57:18;100828.80;;;28.38;40.58
73205;BME280;61413;-27.702;153.216;2024-01-30T04:59:45;100823.39;;;28.24;40.88
73205;BME280;61413;-27.702;153.216;2024-01-30T05:02:12;100823.84;;;27.75;41.14
73205;BME280;61413;-27.702;153.216;2024-01-30T05:04:40;100824.47;;;28.15;41.12
73205;BME280;61413;-27.702;153.216;2024-01-30T05:07:07;100821.98;;;28.01;40.95
73205;BME280;61413;-27.702;153.216;2024-01-30T05:09:34;100820.85;;;27.87;41.01
73205;BME280;61413;-27.702;153.216;2024-01-30T05:13:50;100817.54;;;27.88;41.53
73205;BME280;61413;-27.702;153.216;2024-01-30T05:16:17;100817.26;;;28.07;41.51
73205;BME280;61413;-27.702;153.216;2024-01-30T05:18:45;100818.70;;;27.74;41.98
73205;BME280;61413;-27.702;153.216;2024-01-30T05:21:12;100817.48;;;27.74;42.32
73205;BME280;61413;-27.702;153.216;2024-01-30T05:23:40;100812.30;;;27.63;42.50
73205;BME280;61413;-27.702;153.216;2024-01-30T05:26:07;100815.00;;;27.83;42.63
73205;BME280;61413;-27.702;153.216;2024-01-30T05:28:34;100813.64;;;27.54;42.30
73205;BME280;61413;-27.702;153.216;2024-01-30T05:31:01;100811.16;;;27.79;41.83
73205;BME280;61413;-27.702;153.216;2024-01-30T05:33:29;100810.51;;;27.90;41.57
73205;BME280;61413;-27.702;153.216;2024-01-30T05:35:56;100808.14;;;27.99;41.70
73205;BME280;61413;-27.702;153.216;2024-01-30T05:38:23;100817.18;;;27.76;41.41
73205;BME280;61413;-27.702;153.216;2024-01-30T05:40:50;100808.34;;;27.73;41.33
73205;BME280;61413;-27.702;153.216;2024-01-30T05:43:17;100813.46;;;27.45;41.48
73205;BME280;61413;-27.702;153.216;2024-01-30T05:45:44;100812.30;;;27.37;41.70
73205;BME280;61413;-27.702;153.216;2024-01-30T05:48:11;100808.26;;;27.61;41.41
73205;BME280;61413;-27.702;153.216;2024-01-30T05:50:38;100809.93;;;27.56;41.53
73205;BME280;61413;-27.702;153.216;2024-01-30T05:53:05;100806.11;;;27.45;41.50
73205;BME280;61413;-27.702;153.216;2024-01-30T05:56:31;100810.94;;;27.63;41.99
73205;BME280;61413;-27.702;153.216;2024-01-30T05:58:57;100804.98;;;27.34;42.03
73205;BME280;61413;-27.702;153.216;2024-01-30T06:01:24;100807.35;;;27.65;41.83
73205;BME280;61413;-27.702;153.216;2024-01-30T06:03:51;100807.30;;;27.57;41.38
73205;BME280;61413;-27.702;153.216;2024-01-30T06:06:18;100807.87;;;27.48;41.01
73205;BME280;61413;-27.702;153.216;2024-01-30T06:08:45;100806.46;;;27.46;41.22
73205;BME280;61413;-27.702;153.216;2024-01-30T06:11:12;100812.85;;;27.48;41.10
73205;BME280;61413;-27.702;153.216;2024-01-30T06:13:39;100812.43;;;27.35;41.03
73205;BME280;61413;-27.702;153.216;2024-01-30T06:16:10;100814.92;;;27.76;41.04
73205;BME280;61413;-27.702;153.216;2024-01-30T06:18:35;100808.52;;;27.59;40.81
73205;BME280;61413;-27.702;153.216;2024-01-30T06:22:11;100805.45;;;27.84;40.65
73205;BME280;61413;-27.702;153.216;2024-01-30T06:24:38;100806.94;;;27.62;40.75
73205;BME280;61413;-27.702;153.216;2024-01-30T06:27:05;100808.54;;;27.76;40.92
73205;BME280;61413;-27.702;153.216;2024-01-30T06:29:32;100803.70;;;27.78;40.91
73205;BME280;61413;-27.702;153.216;2024-01-30T06:31:59;100801.43;;;27.63;41.33
73205;BME280;61413;-27.702;153.216;2024-01-30T06:34:31;100798.50;;;27.59;41.49
73205;BME280;61413;-27.702;153.216;2024-01-30T06:36:54;100814.91;;;27.51;41.80
73205;BME280;61413;-27.702;153.216;2024-01-30T06:39:21;100802.14;;;27.39;41.92
73205;BME280;61413;-27.702;153.216;2024-01-30T06:41:48;100799.84;;;27.00;42.18
73205;BME280;61413;-27.702;153.216;2024-01-30T06:44:20;100799.61;;;26.73;42.32
73205;BME280;61413;-27.702;153.216;2024-01-30T06:46:43;100800.48;;;27.13;42.16
73205;BME280;61413;-27.702;153.216;2024-01-30T06:49:17;100802.03;;;27.23;42.04
73205;BME280;61413;-27.702;153.216;2024-01-30T06:51:42;100796.51;;;26.92;42.08
73205;BME280;61413;-27.702;153.216;2024-01-30T06:54:14;100797.08;;;27.07;42.02
73205;BME280;61413;-27.702;153.216;2024-01-30T06:56:33;100801.17;;;26.98;42.05
73205;BME280;61413;-27.702;153.216;2024-01-30T06:58:58;100802.96;;;27.08;42.11
73205;BME280;61413;-27.702;153.216;2024-01-30T07:01:29;100810.90;;;27.10;42.14
73205;BME280;61413;-27.702;153.216;2024-01-30T07:03:52;100807.10;;;27.30;41.86
73205;BME280;61413;-27.702;153.216;2024-01-30T07:08:23;100815.02;;;27.14;42.13
73205;BME280;61413;-27.702;153.216;2024-01-30T07:10:50;100819.20;;;26.94;42.09
73205;BME280;61413;-27.702;153.216;2024-01-30T07:14:48;100833.10;;;26.92;42.19
73205;BME280;61413;-27.702;153.216;2024-01-30T07:19:11;100823.87;;;26.86;42.34
73205;BME280;61413;-27.702;153.216;2024-01-30T07:21:38;100831.68;;;26.68;42.43
73205;BME280;61413;-27.702;153.216;2024-01-30T07:24:05;100840.86;;;26.16;43.67
73205;BME280;61413;-27.702;153.216;2024-01-30T07:26:33;100842.97;;;25.66;44.60
73205;BME280;61413;-27.702;153.216;2024-01-30T07:29:00;100840.48;;;25.63;44.58
73205;BME280;61413;-27.702;153.216;2024-01-30T07:31:26;100838.77;;;25.32;45.02
73205;BME280;61413;-27.702;153.216;2024-01-30T07:33:53;100839.56;;;26.08;44.87
73205;BME280;61413;-27.702;153.216;2024-01-30T07:36:21;100842.01;;;26.02;44.66
73205;BME280;61413;-27.702;153.216;2024-01-30T07:38:48;100842.55;;;26.51;44.38
73205;BME280;61413;-27.702;153.216;2024-01-30T07:41:14;100848.33;;;26.67;44.02
73205;BME280;61413;-27.702;153.216;2024-01-30T07:43:42;100848.56;;;26.67;43.69
73205;BME280;61413;-27.702;153.216;2024-01-30T07:46:09;100846.85;;;26.71;43.60
73205;BME280;61413;-27.702;153.216;2024-01-30T07:48:36;100852.88;;;26.63;43.39
73205;BME280;61413;-27.702;153.216;2024-01-30T07:51:03;100852.37;;;27.09;43.12
73205;BME280;61413;-27.702;153.216;2024-01-30T07:53:38;100855.32;;;26.53;43.03
73205;BME280;61413;-27.702;153.216;2024-01-30T07:55:58;100858.32;;;26.56;42.77
73205;BME280;61413;-27.702;153.216;2024-01-30T07:59:55;100858.31;;;27.12;43.26
73205;BME280;61413;-27.702;153.216;2024-01-30T08:02:22;100859.33;;;26.73;43.40
73205;BME280;61413;-27.702;153.216;2024-01-30T08:04:50;100866.84;;;26.68;43.42
73205;BME280;61413;-27.702;153.216;2024-01-30T08:07:17;100863.39;;;26.68;43.39
73205;BME280;61413;-27.702;153.216;2024-01-30T08:09:44;100868.67;;;26.73;43.43
73205;BME280;61413;-27.702;153.216;2024-01-30T08:12:11;100871.42;;;26.64;43.47
73205;BME280;61413;-27.702;153.216;2024-01-30T08:14:38;100878.43;;;26.86;43.61
73205;BME280;61413;-27.702;153.216;2024-01-30T08:17:05;100884.90;;;26.77;43.80
73205;BME280;61413;-27.702;153.216;2024-01-30T08:19:32;100884.06;;;26.81;43.89
73205;BME280;61413;-27.702;153.216;2024-01-30T08:21:59;100885.81;;;26.79;43.93
73205;BME280;61413;-27.702;153.216;2024-01-30T08:28:48;100893.58;;;26.53;44.34
73205;BME280;61413;-27.702;153.216;2024-01-30T08:31:15;100893.46;;;26.48;44.23
73205;BME280;61413;-27.702;153.216;2024-01-30T08:33:42;100897.57;;;26.45;44.14
73205;BME280;61413;-27.702;153.216;2024-01-30T08:36:10;100891.36;;;26.53;44.13
73205;BME280;61413;-27.702;153.216;2024-01-30T08:38:37;100896.04;;;26.63;44.01
73205;BME280;61413;-27.702;153.216;2024-01-30T08:41:04;100896.15;;;26.67;43.99
73205;BME280;61413;-27.702;153.216;2024-01-30T08:43:31;100906.28;;;26.63;43.79
73205;BME280;61413;-27.702;153.216;2024-01-30T08:46:00;100909.42;;;26.53;43.74
73205;BME280;61413;-27.702;153.216;2024-01-30T08:48:23;100910.22;;;26.70;43.79
73205;BME280;61413;-27.702;153.216;2024-01-30T08:50:50;100910.52;;;26.64;43.85
73205;BME280;61413;-27.702;153.216;2024-01-30T08:53:17;100918.76;;;26.72;43.84
73205;BME280;61413;-27.702;153.216;2024-01-30T08:55:43;100918.26;;;26.50;43.83
73205;BME280;61413;-27.702;153.216;2024-01-30T08:58:10;100920.54;;;26.52;43.72
73205;BME280;61413;-27.702;153.216;2024-01-30T09:00:37;100923.74;;;26.66;43.64
73205;BME280;61413;-27.702;153.216;2024-01-30T09:03:06;100927.49;;;26.52;43.63
73205;BME280;61413;-27.702;153.216;2024-01-30T09:05:32;100933.69;;;26.37;43.57
73205;BME280;61413;-27.702;153.216;2024-01-30T09:07:59;100933.64;;;26.67;43.52
73205;BME280;61413;-27.702;153.216;2024-01-30T09:10:26;100937.88;;;26.61;43.60
73205;BME280;61413;-27.702;153.216;2024-01-30T09:12:54;100939.85;;;26.25;43.66
73205;BME280;61413;-27.702;153.216;2024-01-30T09:15:21;100943.59;;;26.57;43.60
73205;BME280;61413;-27.702;153.216;2024-01-30T09:17:48;100950.15;;;26.72;43.54
73205;BME280;61413;-27.702;153.216;2024-01-30T09:20:15;100946.23;;;26.15;43.64
73205;BME280;61413;-27.702;153.216;2024-01-30T09:22:42;100953.71;;;26.45;43.60
73205;BME280;61413;-27.702;153.216;2024-01-30T09:25:10;100955.65;;;26.73;43.52
73205;BME280;61413;-27.702;153.216;2024-01-30T09:27:37;100960.78;;;26.52;43.46
73205;BME280;61413;-27.702;153.216;2024-01-30T09:30:04;100962.98;;;26.76;43.34
73205;BME280;61413;-27.702;153.216;2024-01-30T09:32:31;100964.97;;;26.05;43.19
73205;BME280;61413;-27.702;153.216;2024-01-30T09:34:59;100965.82;;;26.90;43.19
73205;BME280;61413;-27.702;153.216;2024-01-30T09:37:26;100966.94;;;26.41;43.13
73205;BME280;61413;-27.702;153.216;2024-01-30T09:39:53;100970.92;;;26.57;43.10
73205;BME280;61413;-27.702;153.216;2024-01-30T09:42:31;100971.32;;;26.66;43.03
73205;BME280;61413;-27.702;153.216;2024-01-30T09:44:48;100973.28;;;26.59;43.02
73205;BME280;61413;-27.702;153.216;2024-01-30T09:47:13;100968.40;;;26.42;42.91
73205;BME280;61413;-27.702;153.216;2024-01-30T09:49:43;100971.47;;;27.03;42.80
73205;BME280;61413;-27.702;153.216;2024-01-30T09:52:10;100969.72;;;26.35;42.84
73205;BME280;61413;-27.702;153.216;2024-01-30T09:56:59;100972.72;;;26.41;43.07
73205;BME280;61413;-27.702;153.216;2024-01-30T09:59:25;100974.08;;;26.80;42.97
73205;BME280;61413;-27.702;153.216;2024-01-30T10:01:53;100976.50;;;26.61;42.93
73205;BME280;61413;-27.702;153.216;2024-01-30T10:04:21;100980.29;;;26.59;42.84
73205;BME280;61413;-27.702;153.216;2024-01-30T10:06:49;100984.61;;;26.36;42.81
73205;BME280;61413;-27.702;153.216;2024-01-30T10:09:16;100983.89;;;26.52;42.74
73205;BME280;61413;-27.702;153.216;2024-01-30T10:11:43;100985.75;;;26.47;42.70
73205;BME280;61413;-27.702;153.216;2024-01-30T10:14:11;100989.13;;;26.57;42.53
73205;BME280;61413;-27.702;153.216;2024-01-30T10:16:38;100992.98;;;26.65;42.57
73205;BME280;61413;-27.702;153.216;2024-01-30T10:19:04;100990.78;;;26.60;42.54
73205;BME280;61413;-27.702;153.216;2024-01-30T10:21:32;100990.97;;;26.76;42.34
73205;BME280;61413;-27.702;153.216;2024-01-30T10:23:59;100987.31;;;26.46;42.42
73205;BME280;61413;-27.702;153.216;2024-01-30T10:26:26;100992.31;;;26.40;42.38
73205;BME280;61413;-27.702;153.216;2024-01-30T10:28:53;100991.59;;;26.49;42.39
73205;BME280;61413;-27.702;153.216;2024-01-30T10:31:20;100993.67;;;26.53;42.42
73205;BME280;61413;-27.702;153.216;2024-01-30T10:33:48;100997.67;;;26.52;42.41
73205;BME280;61413;-27.702;153.216;2024-01-30T10:36:15;100995.22;;;26.27;42.38
73205;BME280;61413;-27.702;153.216;2024-01-30T10:38:44;100995.78;;;26.47;42.32
73205;BME280;61413;-27.702;153.216;2024-01-30T10:41:08;100993.04;;;26.41;42.32
73205;BME280;61413;-27.702;153.216;2024-01-30T10:43:35;100994.85;;;26.32;42.42
73205;BME280;61413;-27.702;153.216;2024-01-30T10:46:11;100995.45;;;26.24;42.38
73205;BME280;61413;-27.702;153.216;2024-01-30T10:50:05;100998.97;;;26.26;42.47
73205;BME280;61413;-27.702;153.216;2024-01-30T10:52:33;100996.88;;;26.14;42.48
73205;BME280;61413;-27.702;153.216;2024-01-30T10:55:00;101001.02;;;26.25;42.43
73205;BME280;61413;-27.702;153.216;2024-01-30T10:57:27;101006.66;;;26.27;42.38
73205;BME280;61413;-27.702;153.216;2024-01-30T10:59:57;101003.12;;;26.13;42.35
73205;BME280;61413;-27.702;153.216;2024-01-30T11:02:21;101002.95;;;26.25;42.28
73205;BME280;61413;-27.702;153.216;2024-01-30T11:04:49;101009.64;;;26.22;42.21
73205;BME280;61413;-27.702;153.216;2024-01-30T11:07:17;101008.67;;;26.04;42.40
73205;BME280;61413;-27.702;153.216;2024-01-30T11:09:50;101007.55;;;26.28;42.40
73205;BME280;61413;-27.702;153.216;2024-01-30T11:12:13;101006.99;;;26.06;42.22
73205;BME280;61413;-27.702;153.216;2024-01-30T11:14:39;101004.63;;;26.13;42.32
73205;BME280;61413;-27.702;153.216;2024-01-30T11:17:02;101001.44;;;26.07;42.27
73205;BME280;61413;-27.702;153.216;2024-01-30T11:19:33;101005.03;;;26.13;42.22
73205;BME280;61413;-27.702;153.216;2024-01-30T11:21:56;101001.32;;;25.95;42.20
73205;BME280;61413;-27.702;153.216;2024-01-30T11:24:24;101005.34;;;26.38;42.10
73205;BME280;61413;-27.702;153.216;2024-01-30T11:26:55;101002.75;;;26.19;41.95
73205;BME280;61413;-27.702;153.216;2024-01-30T11:29:19;101009.24;;;26.22;41.92
73205;BME280;61413;-27.702;153.216;2024-01-30T11:31:54;101008.78;;;26.16;41.71
73205;BME280;61413;-27.702;153.216;2024-01-30T11:34:16;101008.57;;;26.39;41.77
73205;BME280;61413;-27.702;153.216;2024-01-30T11:36:39;101009.76;;;26.01;41.78
73205;BME280;61413;-27.702;153.216;2024-01-30T11:39:07;101005.84;;;26.19;41.69
73205;BME280;61413;-27.702;153.216;2024-01-30T11:41:34;101006.40;;;26.24;41.69
73205;BME280;61413;-27.702;153.216;2024-01-30T11:45:31;101006.35;;;26.22;41.80
73205;BME280;61413;-27.702;153.216;2024-01-30T11:47:59;101009.18;;;25.93;41.72
73205;BME280;61413;-27.702;153.216;2024-01-30T11:50:26;101008.41;;;25.87;41.52
73205;BME280;61413;-27.702;153.216;2024-01-30T11:52:54;101009.27;;;25.93;41.39
73205;BME280;61413;-27.702;153.216;2024-01-30T11:55:21;101007.21;;;26.24;41.35
73205;BME280;61413;-27.702;153.216;2024-01-30T11:57:48;101007.44;;;25.94;41.36
73205;BME280;61413;-27.702;153.216;2024-01-30T12:00:17;101006.02;;;26.19;41.29
73205;BME280;61413;-27.702;153.216;2024-01-30T12:02:41;101005.25;;;25.97;41.25
73205;BME280;61413;-27.702;153.216;2024-01-30T12:05:10;101003.23;;;25.96;41.18
73205;BME280;61413;-27.702;153.216;2024-01-30T12:07:37;101004.12;;;26.01;41.19
73205;BME280;61413;-27.702;153.216;2024-01-30T12:10:05;100998.90;;;26.15;41.14
73205;BME280;61413;-27.702;153.216;2024-01-30T12:12:32;100994.42;;;26.12;41.01
73205;BME280;61413;-27.702;153.216;2024-01-30T12:14:59;100992.87;;;26.24;41.05
73205;BME280;61413;-27.702;153.216;2024-01-30T12:17:28;100988.19;;;25.94;40.92
73205;BME280;61413;-27.702;153.216;2024-01-30T12:19:52;100988.63;;;26.02;40.83
73205;BME280;61413;-27.702;153.216;2024-01-30T12:22:21;100987.08;;;25.87;40.89
73205;BME280;61413;-27.702;153.216;2024-01-30T12:24:48;100992.05;;;26.03;40.91
73205;BME280;61413;-27.702;153.216;2024-01-30T12:27:17;100986.44;;;25.84;40.87
73205;BME280;61413;-27.702;153.216;2024-01-30T12:29:43;100985.22;;;26.08;40.83
73205;BME280;61413;-27.702;153.216;2024-01-30T12:32:16;100983.55;;;26.01;40.92
73205;BME280;61413;-27.702;153.216;2024-01-30T12:34:42;100983.04;;;25.89;40.94
73205;BME280;61413;-27.702;153.216;2024-01-30T12:37:06;100983.04;;;26.02;40.94
73205;BME280;61413;-27.702;153.216;2024-01-30T12:39:33;100979.90;;;25.93;40.89
73205;BME280;61413;-27.702;153.216;2024-01-30T12:42:01;100979.07;;;26.01;40.84
73205;BME280;61413;-27.702;153.216;2024-01-30T12:44:28;100978.64;;;25.99;40.81
73205;BME280;61413;-27.702;153.216;2024-01-30T12:46:56;100980.67;;;25.92;40.84
73205;BME280;61413;-27.702;153.216;2024-01-30T12:49:24;100975.53;;;26.09;40.60